createdAt,value
2019-03-17T00:01:13.373Z,165997.30
2019-03-17T00:03:41.461Z,165981.25
2019-03-17T00:06:09.618Z,165990.59
2019-03-17T00:08:37.791Z,165973.25
2019-03-17T00:11:06.322Z,165981.25
2019-03-17T00:13:34.710Z,165987.95
2019-03-17T00:16:02.888Z,165967.91
2019-03-17T00:18:30.996Z,165978.59
2019-03-17T00:20:59.053Z,165962.56
2019-03-17T00:23:27.203Z,165989.25
2019-03-17T00:25:55.360Z,165965.20
2019-03-17T00:28:23.485Z,165969.25
2019-03-17T00:30:51.678Z,165977.25
2019-03-17T00:33:20.267Z,165979.91
2019-03-17T00:35:48.449Z,165974.55
2019-03-17T00:38:17.647Z,165966.55
2019-03-17T00:40:45.784Z,165966.55
2019-03-17T00:43:13.904Z,165971.91
2019-03-17T00:45:42.509Z,165949.20
2019-03-17T00:48:10.593Z,165951.84
2019-03-17T00:50:38.929Z,165951.84
2019-03-17T00:53:07.017Z,165947.86
2019-03-17T00:55:35.316Z,165942.50
2019-03-17T00:58:03.459Z,165935.86
2019-03-17T01:00:32.511Z,165923.81
2019-03-17T01:03:00.695Z,165926.45
2019-03-17T01:05:31.092Z,165934.50
2019-03-17T01:07:59.684Z,165933.16
2019-03-17T01:10:27.879Z,165953.20
2019-03-17T01:12:55.947Z,165933.16
2019-03-17T01:15:24.246Z,165938.50
2019-03-17T01:17:52.600Z,165933.16
2019-03-17T01:20:21.180Z,165945.20
2019-03-17T01:22:49.727Z,165942.50
2019-03-17T01:25:17.894Z,165949.20
2019-03-17T01:27:46.587Z,165953.20
2019-03-17T01:30:14.755Z,165953.20
2019-03-17T01:32:43.155Z,165931.81
2019-03-17T01:35:11.273Z,165942.50
2019-03-17T01:37:39.347Z,165946.50
2019-03-17T01:40:07.677Z,165933.16
2019-03-17T01:42:35.826Z,165951.84
2019-03-17T01:45:06.560Z,165949.20
2019-03-17T01:47:34.846Z,165931.81
2019-03-17T01:50:03.747Z,165935.86
2019-03-17T01:52:31.937Z,165950.50
2019-03-17T01:55:00.064Z,165949.20
2019-03-17T01:57:28.165Z,165951.84
2019-03-17T01:59:56.287Z,165951.84
2019-03-17T02:02:24.995Z,165963.91
2019-03-17T02:04:53.385Z,165982.59
2019-03-17T02:07:21.686Z,165975.91
2019-03-17T02:09:49.781Z,165965.20
2019-03-17T02:12:17.852Z,165978.59
2019-03-17T02:14:46.021Z,165959.91
2019-03-17T02:17:14.316Z,165978.59
2019-03-17T02:19:42.448Z,165970.55
2019-03-17T02:22:10.719Z,165977.25
2019-03-17T02:24:38.950Z,165986.59
2019-03-17T02:27:07.026Z,165978.59
2019-03-17T02:29:35.171Z,165991.95
2019-03-17T02:32:03.398Z,166002.66
2019-03-17T02:34:31.501Z,165990.59
2019-03-17T02:37:00.077Z,165999.94
2019-03-17T02:39:28.227Z,165993.30
2019-03-17T02:41:56.431Z,166013.30
2019-03-17T02:44:24.542Z,166014.66
2019-03-17T02:46:52.653Z,166009.30
2019-03-17T02:49:20.730Z,166006.66
2019-03-17T02:51:48.977Z,165991.95
2019-03-17T02:54:17.919Z,166002.66
2019-03-17T02:56:46.162Z,166016.00
2019-03-17T02:59:14.345Z,166018.64
2019-03-17T03:01:42.504Z,166013.30
2019-03-17T03:04:10.688Z,166022.66
2019-03-17T03:06:38.904Z,166018.64
2019-03-17T03:09:07.385Z,166022.66
2019-03-17T03:11:35.647Z,166005.30
2019-03-17T03:14:03.734Z,166010.66
2019-03-17T03:16:31.792Z,166014.66
2019-03-17T03:19:00.066Z,166026.70
2019-03-17T03:21:28.148Z,166026.70
2019-03-17T03:23:56.255Z,166008.00
2019-03-17T03:26:24.353Z,166018.64
2019-03-17T03:28:52.492Z,166014.66
2019-03-17T03:31:20.747Z,166029.34
2019-03-17T03:33:49.000Z,166010.66
2019-03-17T03:36:17.788Z,166005.30
2019-03-17T03:38:45.910Z,166017.34
2019-03-17T03:41:13.987Z,166024.00
2019-03-17T03:43:42.281Z,166014.66
2019-03-17T03:46:10.373Z,166016.00
2019-03-17T03:48:38.449Z,166005.30
2019-03-17T03:51:08.473Z,166013.30
2019-03-17T03:53:36.508Z,166009.30
2019-03-17T03:56:04.729Z,166005.30
2019-03-17T03:58:33.018Z,166006.66
2019-03-17T04:01:01.182Z,166014.66
2019-03-17T04:03:29.208Z,166016.00
2019-03-17T04:05:57.307Z,166013.30
2019-03-17T04:08:25.675Z,166012.00
2019-03-17T04:10:53.759Z,166005.30
2019-03-17T04:13:21.981Z,165989.25
2019-03-17T04:15:50.177Z,166005.30
2019-03-17T04:18:18.320Z,165995.94
2019-03-17T04:20:47.232Z,166005.30
2019-03-17T04:23:15.824Z,165999.94
2019-03-17T04:25:43.892Z,165997.30
2019-03-17T04:28:12.060Z,165994.59
2019-03-17T04:30:40.141Z,165983.95
2019-03-17T04:33:08.317Z,165994.59
2019-03-17T04:35:36.443Z,165991.95
2019-03-17T04:38:04.595Z,165973.25
2019-03-17T04:40:32.716Z,165953.20
2019-03-17T04:43:00.814Z,165922.47
2019-03-17T04:45:29.691Z,165887.77
2019-03-17T04:47:58.178Z,165844.98
2019-03-17T04:50:26.674Z,165843.69
2019-03-17T04:52:55.079Z,165828.94
2019-03-17T04:55:23.226Z,165804.91
2019-03-17T04:57:51.348Z,165818.25
2019-03-17T05:00:19.596Z,165800.91
2019-03-17T05:02:47.679Z,165799.56
2019-03-17T05:05:15.862Z,165794.20
2019-03-17T05:07:43.971Z,165788.86
2019-03-17T05:10:12.107Z,165779.52
2019-03-17T05:12:40.214Z,165770.17
2019-03-17T05:15:08.930Z,165775.52
2019-03-17T05:17:37.064Z,165759.47
2019-03-17T05:20:05.695Z,165734.09
2019-03-17T05:22:33.871Z,165702.06
2019-03-17T05:25:01.953Z,165716.75
2019-03-17T05:27:30.074Z,165687.38
2019-03-17T05:29:58.192Z,165699.42
2019-03-17T05:32:26.720Z,165679.39
2019-03-17T05:34:54.961Z,165683.38
2019-03-17T05:37:23.068Z,165690.08
2019-03-17T05:39:51.199Z,165676.69
2019-03-17T05:42:19.420Z,165668.69
2019-03-17T05:44:47.622Z,165662.00
2019-03-17T05:47:15.769Z,165666.05
2019-03-17T05:49:43.849Z,165631.33
2019-03-17T05:52:11.969Z,165627.33
2019-03-17T05:54:40.091Z,165639.31
2019-03-17T05:57:08.289Z,165627.33
2019-03-17T05:59:36.431Z,165623.28
2019-03-17T06:02:04.530Z,165615.30
2019-03-17T06:04:32.615Z,165609.95
2019-03-17T06:07:00.737Z,165575.23
2019-03-17T06:09:29.326Z,165575.23
2019-03-17T06:11:57.649Z,165577.94
2019-03-17T06:14:25.784Z,165575.23
2019-03-17T06:16:53.909Z,165572.59
2019-03-17T06:19:22.019Z,165555.27
2019-03-17T06:21:50.086Z,165437.81
2019-03-17T06:24:18.244Z,165192.34
2019-03-17T06:26:46.485Z,165144.34
2019-03-17T06:29:14.663Z,165140.36
2019-03-17T06:31:42.745Z,165099.00
2019-03-17T06:34:11.021Z,165081.69
2019-03-17T06:36:39.263Z,165040.39
2019-03-17T06:39:08.642Z,165019.05
2019-03-17T06:41:37.082Z,164920.47
2019-03-17T06:44:05.273Z,164973.72
2019-03-17T06:46:33.588Z,164955.06
2019-03-17T06:49:01.756Z,164928.44
2019-03-17T06:51:29.867Z,164940.41
2019-03-17T06:53:58.060Z,164921.75
2019-03-17T06:56:26.203Z,164933.78
2019-03-17T06:58:55.539Z,164937.77
2019-03-17T07:01:24.962Z,164947.09
2019-03-17T07:03:53.169Z,164933.78
2019-03-17T07:06:21.487Z,164917.77
2019-03-17T07:08:49.693Z,164889.80
2019-03-17T07:11:17.915Z,164873.80
2019-03-17T07:13:46.059Z,164873.80
2019-03-17T07:16:14.185Z,164855.16
2019-03-17T07:18:42.489Z,164855.16
2019-03-17T07:21:10.709Z,164877.78
2019-03-17T07:23:38.798Z,164888.45
2019-03-17T07:26:07.338Z,164883.13
2019-03-17T07:28:35.521Z,164915.12
2019-03-17T07:31:04.522Z,164904.45
2019-03-17T07:33:33.298Z,164912.44
2019-03-17T07:36:01.471Z,164919.13
2019-03-17T07:38:29.766Z,164920.47
2019-03-17T07:40:57.906Z,164932.44
2019-03-17T07:43:26.008Z,164980.41
2019-03-17T07:45:54.243Z,164976.41
2019-03-17T07:48:22.300Z,164995.06
2019-03-17T07:50:50.610Z,164969.73
2019-03-17T07:53:18.717Z,164977.75
2019-03-17T07:55:46.934Z,164977.75
2019-03-17T07:58:15.023Z,164987.08
2019-03-17T08:00:43.533Z,164985.73
2019-03-17T08:03:12.030Z,164953.77
2019-03-17T08:05:40.251Z,164991.06
2019-03-17T08:08:09.988Z,165001.75
2019-03-17T08:10:40.096Z,165031.06
2019-03-17T08:13:08.496Z,165057.70
2019-03-17T08:15:36.694Z,165080.34
2019-03-17T08:18:04.772Z,165177.69
2019-03-17T08:20:32.973Z,165177.69
2019-03-17T08:23:01.146Z,165153.69
2019-03-17T08:25:29.301Z,165152.33
2019-03-17T08:27:57.600Z,165159.02
2019-03-17T08:30:25.843Z,165175.03
2019-03-17T08:32:54.921Z,165123.00
2019-03-17T08:35:23.486Z,165111.03
2019-03-17T08:37:51.881Z,165129.69
2019-03-17T08:40:20.180Z,165165.70
2019-03-17T08:42:48.273Z,165128.34
2019-03-17T08:45:16.500Z,165181.67
2019-03-17T08:47:56.535Z,165201.67
2019-03-17T08:50:15.345Z,165185.66
2019-03-17T08:52:43.593Z,165231.02
2019-03-17T08:55:11.801Z,165204.37
2019-03-17T08:57:40.011Z,165231.02
2019-03-17T09:00:09.962Z,165201.67
2019-03-17T09:02:38.075Z,165209.66
2019-03-17T09:05:06.370Z,165188.36
2019-03-17T09:07:35.053Z,165177.69
2019-03-17T09:10:06.002Z,165193.69
2019-03-17T09:12:34.153Z,165185.66
2019-03-17T09:15:03.305Z,165203.03
2019-03-17T09:17:31.789Z,165217.69
2019-03-17T09:20:00.052Z,165252.37
2019-03-17T09:22:28.211Z,165200.33
2019-03-17T09:24:56.304Z,165236.36
2019-03-17T09:27:24.377Z,165235.00
2019-03-17T09:29:53.871Z,165217.69
2019-03-17T09:32:21.982Z,165176.33
2019-03-17T09:34:50.075Z,165208.36
2019-03-17T09:37:18.222Z,165197.69
2019-03-17T09:39:47.421Z,165204.37
2019-03-17T09:42:15.606Z,165220.34
2019-03-17T09:44:43.685Z,165213.70
2019-03-17T09:47:11.797Z,165292.34
2019-03-17T09:49:39.872Z,165297.69
2019-03-17T09:52:08.290Z,165323.05
2019-03-17T09:54:36.927Z,165356.44
2019-03-17T09:57:05.074Z,165393.78
2019-03-17T09:59:33.172Z,165401.77
2019-03-17T10:02:01.637Z,165391.14
2019-03-17T10:04:29.830Z,165399.12
2019-03-17T10:06:58.009Z,165444.50
2019-03-17T10:09:26.080Z,165479.16
2019-03-17T10:11:54.216Z,165511.22
2019-03-17T10:14:22.667Z,165472.52
2019-03-17T10:16:50.887Z,165543.22
2019-03-17T10:19:19.122Z,165508.52
2019-03-17T10:21:47.236Z,165532.53
2019-03-17T10:24:15.324Z,165627.33
2019-03-17T10:26:43.536Z,165568.59
2019-03-17T10:29:11.583Z,165619.30
2019-03-17T10:31:39.798Z,165650.00
2019-03-17T10:34:07.935Z,165544.58
2019-03-17T10:36:36.085Z,165618.00
2019-03-17T10:39:12.355Z,165555.27
2019-03-17T10:41:35.782Z,165452.50
2019-03-17T10:44:04.008Z,165460.48
2019-03-17T10:46:32.144Z,165483.20
2019-03-17T10:49:00.237Z,165445.81
2019-03-17T10:51:28.469Z,165553.91
2019-03-17T10:53:56.647Z,165585.92
2019-03-17T10:56:24.950Z,165607.31
2019-03-17T10:58:55.403Z,165527.19
2019-03-17T11:01:23.635Z,165561.91
2019-03-17T11:03:51.845Z,165557.91
2019-03-17T11:06:20.063Z,165523.20
2019-03-17T11:08:48.205Z,165567.25
2019-03-17T11:11:16.344Z,165575.23
2019-03-17T11:13:44.432Z,165584.58
2019-03-17T11:16:12.850Z,165671.34
2019-03-17T11:18:41.099Z,165700.72
2019-03-17T11:21:10.147Z,165702.06
2019-03-17T11:23:38.217Z,165698.08
2019-03-17T11:26:08.124Z,165627.33
2019-03-17T11:28:36.215Z,165604.61
2019-03-17T11:31:05.202Z,165487.19
2019-03-17T11:33:34.000Z,165403.12
2019-03-17T11:36:02.077Z,165159.02
2019-03-17T11:38:30.209Z,165060.34
2019-03-17T11:40:58.271Z,165084.34
2019-03-17T11:43:26.397Z,165060.34
2019-03-17T11:45:54.537Z,165128.34
2019-03-17T11:48:22.820Z,165168.34
2019-03-17T11:50:51.062Z,165176.33
2019-03-17T11:53:19.180Z,165268.34
2019-03-17T11:55:47.228Z,165268.34
2019-03-17T11:58:15.686Z,165479.16
2019-03-17T12:00:44.555Z,165517.86
2019-03-17T12:03:12.685Z,165460.48
2019-03-17T12:05:40.767Z,165415.14
2019-03-17T12:08:08.922Z,165331.03
2019-03-17T12:10:37.103Z,165283.02
2019-03-17T12:13:05.263Z,165311.02
2019-03-17T12:15:33.472Z,165277.67
2019-03-17T12:18:01.684Z,165235.00
2019-03-17T12:20:29.768Z,165243.00
2019-03-17T12:22:58.154Z,165252.37
2019-03-17T12:25:26.343Z,165275.03
2019-03-17T12:27:54.478Z,165315.02
2019-03-17T12:30:22.855Z,165295.05
2019-03-17T12:32:51.432Z,165321.70
2019-03-17T12:35:19.670Z,165345.75
2019-03-17T12:37:47.803Z,165345.75
2019-03-17T12:40:16.134Z,165303.03
2019-03-17T12:42:44.445Z,165273.69
2019-03-17T12:45:12.780Z,165172.34
2019-03-17T12:47:41.077Z,165200.33
2019-03-17T12:50:11.451Z,165145.69
2019-03-17T12:52:39.569Z,165129.69
2019-03-17T12:55:07.817Z,165143.00
2019-03-17T12:57:35.951Z,165127.05
2019-03-17T13:00:05.630Z,165140.36
2019-03-17T13:02:33.874Z,165155.03
2019-03-17T13:05:02.097Z,165260.36
2019-03-17T13:07:30.340Z,165305.67
2019-03-17T13:09:58.504Z,165385.80
2019-03-17T13:12:26.770Z,165412.45
2019-03-17T13:14:54.902Z,165449.80
2019-03-17T13:17:23.122Z,165397.78
2019-03-17T13:19:51.241Z,165393.78
2019-03-17T13:22:19.403Z,165379.09
2019-03-17T13:24:47.574Z,165283.02
2019-03-17T13:27:15.675Z,165339.02
2019-03-17T13:29:44.532Z,165324.39
2019-03-17T13:32:12.709Z,165340.37
2019-03-17T13:34:40.794Z,165328.39
2019-03-17T13:37:08.882Z,165321.70
2019-03-17T13:39:37.022Z,165353.75
2019-03-17T13:42:05.228Z,165361.78
2019-03-17T13:44:33.376Z,165423.14
2019-03-17T13:47:01.535Z,165443.16
2019-03-17T13:49:29.766Z,165553.91
2019-03-17T13:51:57.885Z,165531.25
2019-03-17T13:54:26.004Z,165613.94
2019-03-17T13:56:56.558Z,165577.94
2019-03-17T13:59:24.613Z,165545.92
2019-03-17T14:01:52.775Z,165496.53
2019-03-17T14:04:21.156Z,165473.81
2019-03-17T14:06:49.282Z,165431.12
2019-03-17T14:09:17.532Z,165460.48
2019-03-17T14:11:47.278Z,165412.45
2019-03-17T14:14:15.449Z,165272.34
2019-03-17T14:16:43.574Z,165169.70
2019-03-17T14:19:11.725Z,165165.70
2019-03-17T14:21:39.965Z,165263.00
2019-03-17T14:24:08.091Z,165191.00
2019-03-17T14:26:36.428Z,165148.34
2019-03-17T14:29:04.725Z,165160.37
2019-03-17T14:31:33.083Z,165252.37
2019-03-17T14:34:01.536Z,165325.69
2019-03-17T14:36:29.635Z,165411.16
2019-03-17T14:38:57.739Z,165476.50
2019-03-17T14:41:25.917Z,165468.52
2019-03-17T14:43:53.964Z,165503.17
2019-03-17T14:46:22.043Z,165524.55
2019-03-17T14:48:50.500Z,165460.48
2019-03-17T14:51:18.604Z,165540.58
2019-03-17T14:53:47.342Z,165535.23
2019-03-17T14:56:15.539Z,165520.55
2019-03-17T14:58:43.699Z,165551.22
2019-03-17T15:01:11.948Z,165551.22
2019-03-17T15:03:40.149Z,165523.20
2019-03-17T15:06:08.250Z,165540.58
2019-03-17T15:08:36.310Z,165577.94
2019-03-17T15:11:06.270Z,165565.91
2019-03-17T15:13:34.602Z,165655.36
2019-03-17T15:16:03.381Z,165625.98
2019-03-17T15:18:31.569Z,165680.69
2019-03-17T15:20:59.951Z,165703.41
2019-03-17T15:23:28.633Z,165735.44
2019-03-17T15:25:57.158Z,165740.78
2019-03-17T15:28:25.345Z,165710.06
2019-03-17T15:31:09.726Z,165632.63
2019-03-17T15:33:24.596Z,165607.31
2019-03-17T15:35:52.888Z,165604.61
2019-03-17T15:38:21.317Z,165575.23
2019-03-17T15:40:49.857Z,165552.56
2019-03-17T15:43:17.920Z,165556.56
2019-03-17T15:45:46.146Z,165556.56
2019-03-17T15:48:14.429Z,165571.25
2019-03-17T15:50:42.520Z,165513.86
2019-03-17T15:53:11.047Z,165508.52
2019-03-17T15:55:39.169Z,165484.50
2019-03-17T15:58:07.286Z,165429.83
2019-03-17T16:00:35.469Z,165425.78
2019-03-17T16:03:03.771Z,165417.80
2019-03-17T16:05:32.197Z,165401.77
2019-03-17T16:08:00.662Z,165419.14
2019-03-17T16:10:28.838Z,165405.81
2019-03-17T16:12:57.473Z,165460.48
2019-03-17T16:15:26.299Z,165455.14
2019-03-17T16:17:54.881Z,165451.14
2019-03-17T16:20:23.729Z,165447.16
2019-03-17T16:22:51.993Z,165399.12
2019-03-17T16:25:20.576Z,165393.78
2019-03-17T16:27:48.781Z,165391.14
2019-03-17T16:30:19.345Z,165377.75
2019-03-17T16:32:47.805Z,165324.39
2019-03-17T16:35:16.931Z,165345.75
2019-03-17T16:37:48.974Z,165336.37
2019-03-17T16:40:19.257Z,165319.05
2019-03-17T16:42:47.708Z,165323.05
2019-03-17T16:45:16.991Z,165308.38
2019-03-17T16:47:45.130Z,165305.67
2019-03-17T16:50:15.321Z,165295.05
2019-03-17T16:52:43.573Z,165276.37
2019-03-17T16:55:12.462Z,165260.36
2019-03-17T16:57:40.619Z,165239.00
2019-03-17T17:00:14.151Z,165231.02
2019-03-17T17:02:42.543Z,165223.03
2019-03-17T17:05:11.995Z,165189.70
2019-03-17T17:07:40.727Z,165207.02
2019-03-17T17:10:12.192Z,165177.69
2019-03-17T17:12:41.919Z,165157.67
2019-03-17T17:15:16.150Z,165136.37
2019-03-17T17:17:44.588Z,165155.03
2019-03-17T17:20:16.365Z,165121.70
2019-03-17T17:22:44.840Z,165135.03
2019-03-17T17:25:13.493Z,165111.03
2019-03-17T17:27:41.600Z,165081.69
2019-03-17T17:30:12.381Z,165081.69
2019-03-17T17:32:40.804Z,165063.03
2019-03-17T17:35:12.108Z,165041.69
2019-03-17T17:37:40.702Z,165043.03
2019-03-17T17:40:11.299Z,165053.72
2019-03-17T17:42:39.698Z,165015.06
2019-03-17T17:45:09.549Z,165015.06
2019-03-17T17:47:37.642Z,165009.72
2019-03-17T17:50:06.960Z,164999.05
2019-03-17T17:52:35.208Z,164985.73
2019-03-17T17:55:03.797Z,164961.75
2019-03-17T17:57:31.969Z,164937.77
2019-03-17T18:00:00.055Z,164925.75
2019-03-17T18:02:28.242Z,164921.75
2019-03-17T18:04:56.963Z,164909.80
2019-03-17T18:07:25.030Z,164924.45
2019-03-17T18:09:53.135Z,164904.45
2019-03-17T18:12:21.675Z,164879.13
2019-03-17T18:14:50.113Z,164903.11
2019-03-17T18:17:19.250Z,164864.47
2019-03-17T18:19:48.237Z,164865.83
2019-03-17T18:22:16.830Z,164852.52
2019-03-17T18:24:45.876Z,164851.16
2019-03-17T18:27:15.210Z,164856.50
2019-03-17T18:29:43.518Z,164828.53
2019-03-17T18:32:12.193Z,164852.52
2019-03-17T18:34:40.341Z,164828.53
2019-03-17T18:37:10.518Z,164847.17
2019-03-17T18:39:38.669Z,164856.50
2019-03-17T18:42:07.000Z,164856.50
2019-03-17T18:44:35.054Z,164884.47
2019-03-17T18:47:03.902Z,164895.13
2019-03-17T18:49:31.994Z,164884.47
2019-03-17T18:52:00.199Z,164891.14
2019-03-17T18:54:28.379Z,164905.81
2019-03-17T18:56:56.415Z,164907.09
2019-03-17T18:59:24.515Z,164876.48
2019-03-17T19:01:52.981Z,164868.47
2019-03-17T19:04:21.083Z,164859.14
2019-03-17T19:06:49.210Z,164847.17
2019-03-17T19:09:17.364Z,164847.17
2019-03-17T19:11:45.453Z,164849.81
2019-03-17T19:14:13.690Z,164829.83
2019-03-17T19:16:42.908Z,164807.20
2019-03-17T19:19:11.101Z,164812.53
2019-03-17T19:21:39.402Z,164788.56
2019-03-17T19:24:07.625Z,164783.22
2019-03-17T19:26:35.711Z,164764.58
2019-03-17T19:29:03.829Z,164759.25
2019-03-17T19:31:33.772Z,164747.28
2019-03-17T19:34:02.019Z,164745.94
2019-03-17T19:36:30.097Z,164736.63
2019-03-17T19:38:58.200Z,164753.92
2019-03-17T19:41:26.308Z,164731.28
2019-03-17T19:43:54.722Z,164724.61
2019-03-17T19:46:22.822Z,164723.31
2019-03-17T19:48:51.106Z,164719.28
2019-03-17T19:51:19.255Z,164704.69
2019-03-17T19:53:47.470Z,164697.95
2019-03-17T19:56:15.796Z,164695.25
2019-03-17T19:58:44.009Z,164676.63
2019-03-17T20:01:12.095Z,164679.31
2019-03-17T20:03:40.213Z,164639.36
2019-03-17T20:06:10.603Z,164659.34
2019-03-17T20:08:38.979Z,164655.34
2019-03-17T20:11:07.212Z,164635.37
2019-03-17T20:13:35.651Z,164632.69
2019-03-17T20:16:03.730Z,164640.70
2019-03-17T20:18:31.852Z,164650.02
2019-03-17T20:21:00.001Z,164636.72
2019-03-17T20:23:28.128Z,164612.75
2019-03-17T20:25:56.899Z,164618.09
2019-03-17T20:28:24.988Z,164619.37
2019-03-17T20:30:53.086Z,164607.42
2019-03-17T20:33:21.302Z,164583.45
2019-03-17T20:35:49.534Z,164583.45
2019-03-17T20:38:18.261Z,164588.78
2019-03-17T20:40:46.322Z,164586.09
2019-03-17T20:43:24.111Z,164572.80
2019-03-17T20:45:44.456Z,164586.09
2019-03-17T20:48:12.685Z,164555.52
2019-03-17T20:50:40.967Z,164559.50
2019-03-17T20:53:09.052Z,164548.84
2019-03-17T20:55:39.589Z,164558.16
2019-03-17T20:58:07.784Z,164559.50
2019-03-17T21:00:35.970Z,164562.14
2019-03-17T21:03:04.134Z,164530.22
2019-03-17T21:05:32.220Z,164546.19
2019-03-17T21:08:00.279Z,164535.53
2019-03-17T21:10:28.447Z,164534.19
2019-03-17T21:12:56.560Z,164532.84
2019-03-17T21:15:25.099Z,164546.19
2019-03-17T21:17:53.261Z,164524.88
2019-03-17T21:20:21.446Z,164534.19
2019-03-17T21:22:49.668Z,164518.20
2019-03-17T21:25:17.782Z,164520.89
2019-03-17T21:27:46.237Z,164520.89
2019-03-17T21:30:17.423Z,164495.59
2019-03-17T21:32:46.055Z,164514.22
2019-03-17T21:35:14.255Z,164495.59
2019-03-17T21:37:42.484Z,164496.94
2019-03-17T21:40:10.663Z,164491.61
2019-03-17T21:42:39.864Z,164494.25
2019-03-17T21:45:08.408Z,164471.64
2019-03-17T21:47:36.526Z,164476.97
2019-03-17T21:50:07.501Z,164474.28
2019-03-17T21:52:35.593Z,164482.30
2019-03-17T21:55:04.193Z,164466.31
2019-03-17T21:57:32.376Z,164491.61
2019-03-17T22:00:00.638Z,164484.94
2019-03-17T22:02:29.015Z,164482.30
2019-03-17T22:04:57.166Z,164490.27
2019-03-17T22:07:25.237Z,164490.27
2019-03-17T22:09:53.328Z,164478.31
2019-03-17T22:12:21.876Z,164462.33
2019-03-17T22:14:49.950Z,164482.30
2019-03-17T22:17:18.114Z,164469.00
2019-03-17T22:19:46.243Z,164458.34
2019-03-17T22:22:14.296Z,164447.69
2019-03-17T22:24:42.493Z,164457.00
2019-03-17T22:27:10.578Z,164466.31
2019-03-17T22:29:38.698Z,164476.97
2019-03-17T22:32:06.795Z,164472.98
2019-03-17T22:34:34.972Z,164490.27
2019-03-17T22:37:03.114Z,164482.30
2019-03-17T22:39:31.244Z,164492.95
2019-03-17T22:41:59.415Z,164494.25
2019-03-17T22:44:28.175Z,164508.89
2019-03-17T22:46:56.465Z,164498.23
2019-03-17T22:49:24.642Z,164498.23
2019-03-17T22:51:52.712Z,164522.23
2019-03-17T22:54:20.832Z,164522.23
2019-03-17T22:56:48.913Z,164538.19
2019-03-17T22:59:16.990Z,164540.88
2019-03-17T23:01:45.238Z,164544.86
2019-03-17T23:04:13.337Z,164559.50
2019-03-17T23:06:41.456Z,164563.48
2019-03-17T23:09:09.566Z,164588.78
2019-03-17T23:11:38.089Z,164586.09
2019-03-17T23:14:06.251Z,164583.45
2019-03-17T23:16:35.376Z,164580.77
2019-03-17T23:19:03.459Z,164580.77
2019-03-17T23:21:31.551Z,164578.13
2019-03-17T23:23:59.637Z,164592.78
2019-03-17T23:26:27.810Z,164584.75
2019-03-17T23:28:55.955Z,164578.13
2019-03-17T23:31:24.024Z,164584.75
2019-03-17T23:33:52.285Z,164580.77
2019-03-17T23:36:20.349Z,164607.42
2019-03-17T23:38:48.629Z,164590.08
2019-03-17T23:41:16.667Z,164586.09
2019-03-17T23:43:44.808Z,164578.13
2019-03-17T23:46:12.883Z,164556.81
2019-03-17T23:48:41.020Z,164560.78
2019-03-17T23:51:09.129Z,164594.13
2019-03-17T23:53:37.255Z,164586.09
2019-03-17T23:56:05.368Z,164591.44
2019-03-17T23:58:33.413Z,164594.13
